Time;durP1;ratioP1;P1;durP2;ratioP2;P2;SDS_P1;SDS_P2;PMS_P1;PMS_P2;Temp;Humidity;BMP_temperature;BMP_pressure;BME280_temperature;BME280_humidity;BME280_pressure;Samples;Min_cycle;Max_cycle;Signal;HPM_P1;HPM_P2
2023/07/30 00:00:10;;;;;;;2.00;1.90;;;17.10;99.90;;;;;;5012622;28;20295;-81
2023/07/30 00:02:36;;;;;;;1.95;1.83;;;17.00;99.90;;;;;;5020814;28;20232;-81
2023/07/30 00:05:03;;;;;;;1.80;1.67;;;17.00;99.90;;;;;;5012011;28;20566;-81
2023/07/30 00:07:30;;;;;;;3.05;1.77;;;17.00;99.90;;;;;;5016207;28;20706;-80
2023/07/30 00:09:57;;;;;;;1.98;1.48;;;17.00;99.90;;;;;;5018012;28;20686;-81
2023/07/30 00:12:25;;;;;;;2.47;1.83;;;16.80;99.90;;;;;;5018313;28;20686;-81
2023/07/30 00:14:51;;;;;;;2.30;2.10;;;16.80;99.90;;;;;;5018382;28;20201;-81
2023/07/30 00:17:18;;;;;;;1.63;1.52;;;16.70;99.90;;;;;;5017338;28;20217;-81
2023/07/30 00:19:45;;;;;;;1.83;1.73;;;16.80;99.90;;;;;;5018218;28;20204;-81
2023/07/30 00:22:12;;;;;;;1.77;1.67;;;16.80;99.90;;;;;;5017893;28;20746;-81
2023/07/30 00:24:38;;;;;;;2.70;2.13;;;16.70;99.90;;;;;;5017492;28;20196;-81
2023/07/30 00:27:06;;;;;;;2.58;1.90;;;16.70;99.90;;;;;;5017207;28;20224;-81
2023/07/30 00:29:34;;;;;;;2.25;2.00;;;16.70;99.90;;;;;;5017358;28;20279;-81
2023/07/30 00:32:01;;;;;;;2.20;2.00;;;16.70;99.90;;;;;;5017628;28;20581;-81
2023/07/30 00:34:28;;;;;;;2.83;1.85;;;16.70;99.90;;;;;;5017962;28;20204;-81
2023/07/30 00:36:55;;;;;;;1.90;1.63;;;16.80;99.90;;;;;;5016638;28;20756;-80
2023/07/30 00:39:21;;;;;;;3.13;1.95;;;16.90;99.90;;;;;;5017423;28;20200;-81
2023/07/30 00:41:49;;;;;;;2.95;2.10;;;16.80;99.90;;;;;;5017389;28;20212;-80
2023/07/30 00:44:15;;;;;;;2.15;1.95;;;16.80;99.90;;;;;;5017270;28;20204;-80
2023/07/30 00:46:44;;;;;;;2.83;2.25;;;16.90;99.90;;;;;;5016803;28;20781;-81
2023/07/30 00:49:11;;;;;;;2.80;2.28;;;16.90;99.90;;;;;;5001715;28;20590;-81
2023/07/30 00:51:38;;;;;;;3.75;1.95;;;16.90;99.90;;;;;;4999505;28;20291;-80
2023/07/30 00:54:05;;;;;;;2.85;2.00;;;16.90;99.90;;;;;;4997375;28;20209;-81
2023/07/30 00:56:32;;;;;;;3.45;2.17;;;16.70;99.90;;;;;;4997263;28;20331;-80
2023/07/30 00:58:59;;;;;;;2.40;2.20;;;16.80;99.90;;;;;;4997486;28;20205;-81
2023/07/30 01:01:25;;;;;;;3.08;2.63;;;16.70;99.90;;;;;;4997493;28;20264;-79
2023/07/30 01:03:54;;;;;;;1.98;1.77;;;16.80;99.90;;;;;;5012704;28;20204;-80
2023/07/30 01:06:21;;;;;;;4.95;2.22;;;16.80;99.90;;;;;;5016215;28;20231;-80
2023/07/30 01:08:49;;;;;;;2.13;1.92;;;16.90;99.90;;;;;;5017000;28;20650;-80
2023/07/30 01:11:16;;;;;;;3.53;2.08;;;17.00;99.90;;;;;;5016276;28;20204;-80
2023/07/30 01:13:43;;;;;;;2.78;2.42;;;17.00;99.90;;;;;;5016741;28;20223;-80
2023/07/30 01:16:11;;;;;;;2.53;1.90;;;17.10;99.90;;;;;;5016675;28;20270;-79
2023/07/30 01:18:38;;;;;;;1.95;1.83;;;17.10;99.90;;;;;;5016622;28;20684;-81
2023/07/30 01:21:06;;;;;;;2.25;2.00;;;17.20;99.90;;;;;;5016270;28;20204;-80
2023/07/30 01:23:33;;;;;;;2.50;2.30;;;17.20;99.90;;;;;;5016161;28;20613;-80
2023/07/30 01:26:07;;;;;;;3.00;2.20;;;17.20;99.90;;;;;;5016133;28;20248;-80
2023/07/30 01:28:38;;;;;;;2.55;2.35;;;17.20;99.90;;;;;;5015838;28;20203;-80
2023/07/30 01:31:07;;;;;;;2.35;2.13;;;17.40;99.90;;;;;;5015880;28;20197;-80
2023/07/30 01:33:34;;;;;;;2.72;2.20;;;17.40;99.90;;;;;;5016355;28;20200;-80
2023/07/30 01:36:02;;;;;;;3.22;2.30;;;17.40;99.90;;;;;;5015948;28;20224;-80
2023/07/30 01:38:31;;;;;;;2.28;2.08;;;17.40;99.90;;;;;;5015572;28;20204;-79
2023/07/30 01:40:58;;;;;;;3.38;2.40;;;17.50;99.90;;;;;;5015778;28;20201;-80
2023/07/30 01:43:25;;;;;;;3.65;2.45;;;17.50;99.90;;;;;;5016112;28;20197;-80
2023/07/30 01:45:51;;;;;;;2.58;2.38;;;17.50;99.90;;;;;;5015356;28;20272;-79
2023/07/30 01:48:18;;;;;;;5.03;2.42;;;17.50;99.90;;;;;;4999420;28;20291;-80
2023/07/30 01:50:47;;;;;;;3.10;2.45;;;17.40;99.90;;;;;;5015522;28;20601;-80
2023/07/30 01:53:13;;;;;;;3.67;2.70;;;17.40;99.90;;;;;;5015845;28;20706;-80
2023/07/30 01:55:43;;;;;;;5.55;2.35;;;17.40;99.90;;;;;;5015371;28;20572;-79
2023/07/30 01:58:10;;;;;;;4.10;2.30;;;17.40;99.90;;;;;;5014544;28;20204;-80
2023/07/30 02:00:37;;;;;;;3.10;2.58;;;17.40;99.90;;;;;;5015517;28;20586;-80
2023/07/30 02:03:04;;;;;;;3.72;2.65;;;17.40;99.90;;;;;;5015349;28;20203;-79
2023/07/30 02:05:30;;;;;;;2.45;2.10;;;17.30;99.90;;;;;;5015585;28;20204;-80
2023/07/30 02:07:58;;;;;;;3.40;2.53;;;17.30;99.90;;;;;;5014441;28;20223;-80
2023/07/30 02:10:25;;;;;;;3.38;2.42;;;17.30;99.90;;;;;;5014835;28;20586;-80
2023/07/30 02:12:53;;;;;;;2.90;2.60;;;17.20;99.90;;;;;;5015531;28;20212;-80
2023/07/30 02:15:20;;;;;;;2.95;2.50;;;17.20;99.90;;;;;;5015164;28;20196;-80
2023/07/30 02:17:47;;;;;;;6.50;2.50;;;17.10;99.90;;;;;;5014430;28;20236;-80
2023/07/30 02:20:14;;;;;;;3.13;2.58;;;17.10;99.90;;;;;;5015439;28;20661;-80
2023/07/30 02:22:40;;;;;;;5.13;2.50;;;17.00;99.90;;;;;;5015364;28;20204;-80
2023/07/30 02:25:08;;;;;;;5.50;2.97;;;16.90;99.90;;;;;;5015205;28;20295;-80
2023/07/30 02:27:34;;;;;;;2.90;2.67;;;16.70;99.90;;;;;;5014449;28;20224;-81
2023/07/30 02:30:03;;;;;;;3.58;2.70;;;16.80;99.90;;;;;;5015184;28;20224;-80
2023/07/30 02:32:30;;;;;;;4.18;2.70;;;16.70;99.90;;;;;;5015162;28;20295;-80
2023/07/30 02:34:56;;;;;;;2.95;2.47;;;16.80;99.90;;;;;;5014817;28;20581;-81
2023/07/30 02:37:23;;;;;;;6.07;3.00;;;16.60;99.90;;;;;;5014116;28;20713;-80
2023/07/30 02:39:50;;;;;;;3.78;2.28;;;16.60;99.90;;;;;;5014948;28;20210;-81
2023/07/30 02:42:17;;;;;;;2.70;2.50;;;16.60;99.90;;;;;;5014910;28;20215;-81
2023/07/30 02:44:43;;;;;;;4.05;2.97;;;16.50;99.90;;;;;;5014615;28;20207;-80
2023/07/30 02:47:12;;;;;;;5.80;3.00;;;16.60;99.90;;;;;;5008733;28;20732;-81
2023/07/30 02:49:38;;;;;;;4.70;2.60;;;16.50;99.90;;;;;;5014809;28;20577;-81
2023/07/30 02:52:06;;;;;;;4.05;2.80;;;16.40;99.90;;;;;;5014822;28;20650;-81
2023/07/30 02:54:32;;;;;;;6.10;2.70;;;16.50;99.90;;;;;;5014558;28;20204;-81
2023/07/30 02:56:59;;;;;;;6.40;3.10;;;16.60;99.90;;;;;;5013806;28;20216;-81
2023/07/30 02:59:26;;;;;;;4.90;2.90;;;16.50;99.90;;;;;;5014800;28;20204;-81
2023/07/30 03:01:52;;;;;;;3.72;2.60;;;16.50;99.90;;;;;;5014746;28;20208;-80
2023/07/30 03:04:21;;;;;;;4.00;2.65;;;16.30;99.90;;;;;;5014672;28;20196;-80
2023/07/30 03:06:47;;;;;;;5.70;2.90;;;16.30;99.90;;;;;;5014169;28;20228;-81
2023/07/30 03:09:14;;;;;;;3.25;2.65;;;16.20;99.90;;;;;;5013862;28;20732;-81
2023/07/30 03:11:41;;;;;;;4.88;2.97;;;16.20;99.90;;;;;;5014418;28;20215;-81
2023/07/30 03:14:08;;;;;;;5.82;2.95;;;16.10;99.90;;;;;;5015032;28;20208;-81
2023/07/30 03:16:34;;;;;;;3.42;2.40;;;16.00;99.90;;;;;;5014077;28;20747;-81
2023/07/30 03:19:01;;;;;;;3.80;2.50;;;15.90;99.90;;;;;;5014789;28;20585;-79
2023/07/30 03:21:29;;;;;;;5.40;2.63;;;15.90;99.90;;;;;;5014629;28;20204;-81
2023/07/30 03:23:56;;;;;;;6.60;3.22;;;15.80;99.90;;;;;;4995691;28;20216;-81
2023/07/30 03:26:23;;;;;;;4.38;3.00;;;15.90;99.90;;;;;;5004008;28;20740;-81
2023/07/30 03:28:50;;;;;;;5.50;3.28;;;15.90;99.90;;;;;;5014518;28;20196;-80
2023/07/30 03:31:16;;;;;;;4.68;3.00;;;15.90;99.90;;;;;;5014668;28;20640;-81
2023/07/30 03:33:45;;;;;;;7.43;3.00;;;15.70;99.90;;;;;;5014206;28;20574;-80
2023/07/30 03:36:12;;;;;;;3.42;2.63;;;15.80;99.90;;;;;;5014213;28;20219;-81
2023/07/30 03:38:41;;;;;;;5.38;3.15;;;15.70;99.90;;;;;;5014413;28;20207;-81
2023/07/30 03:41:07;;;;;;;9.50;3.15;;;15.60;99.90;;;;;;5014088;28;20196;-81
2023/07/30 03:43:34;;;;;;;4.15;2.60;;;15.70;99.90;;;;;;5013442;28;20208;-81
2023/07/30 03:46:01;;;;;;;4.47;2.88;;;15.70;99.90;;;;;;5012480;28;20224;-81
2023/07/30 03:48:28;;;;;;;5.55;2.92;;;15.70;99.90;;;;;;5014119;28;20303;-81
2023/07/30 03:50:56;;;;;;;5.65;2.90;;;15.60;99.90;;;;;;5013995;28;20224;-81
2023/07/30 03:53:23;;;;;;;5.32;2.80;;;15.50;99.90;;;;;;5014326;28;20581;-81
2023/07/30 03:55:51;;;;;;;6.65;2.83;;;15.60;99.90;;;;;;5013701;28;20208;-81
2023/07/30 03:58:18;;;;;;;3.55;2.53;;;15.60;99.90;;;;;;5014076;28;20215;-81
2023/07/30 04:00:45;;;;;;;5.40;3.72;;;15.60;99.90;;;;;;5015004;28;20200;-80
2023/07/30 04:03:11;;;;;;;7.15;4.13;;;15.70;99.90;;;;;;5013890;28;20581;-81
2023/07/30 04:05:38;;;;;;;7.15;3.03;;;15.60;99.90;;;;;;5016602;28;20917;-81
2023/07/30 04:08:05;;;;;;;5.65;3.17;;;15.90;99.90;;;;;;5015036;28;20627;-81
2023/07/30 04:10:32;;;;;;;3.47;2.67;;;16.00;99.90;;;;;;5009465;28;20217;-82
2023/07/30 04:13:00;;;;;;;6.60;2.92;;;16.00;99.90;;;;;;5006928;28;20216;-82
2023/07/30 04:15:27;;;;;;;9.02;3.35;;;15.90;99.90;;;;;;5015730;28;20201;-82
2023/07/30 04:17:55;;;;;;;5.20;3.00;;;16.10;99.90;;;;;;5012147;28;20243;-82
2023/07/30 04:20:21;;;;;;;4.63;2.70;;;16.00;99.90;;;;;;5012755;28;20228;-82
2023/07/30 04:22:47;;;;;;;4.97;3.55;;;15.90;99.90;;;;;;5017738;28;20287;-81
2023/07/30 04:25:14;;;;;;;9.35;3.25;;;15.90;99.90;;;;;;5014288;28;20208;-81
2023/07/30 04:27:41;;;;;;;4.05;3.08;;;15.80;99.90;;;;;;5007120;28;20232;-81
2023/07/30 04:30:10;;;;;;;5.30;2.92;;;15.90;99.90;;;;;;5015749;28;20227;-82
2023/07/30 04:32:37;;;;;;;6.78;2.90;;;16.00;99.90;;;;;;5013699;28;20227;-82
2023/07/30 04:35:04;;;;;;;5.65;2.83;;;16.00;99.90;;;;;;5017334;28;20658;-82
2023/07/30 04:37:31;;;;;;;6.53;3.15;;;16.20;99.90;;;;;;5008129;28;20303;-82
2023/07/30 04:39:58;;;;;;;5.25;2.88;;;16.30;99.90;;;;;;5012451;28;20288;-83
2023/07/30 04:42:25;;;;;;;13.15;7.45;;;16.40;99.90;;;;;;5012350;28;20632;-82
2023/07/30 04:44:52;;;;;;;7.32;3.72;;;16.40;99.90;;;;;;5015113;28;20204;-82
2023/07/30 04:47:20;;;;;;;5.35;3.20;;;16.40;99.90;;;;;;5009897;28;20224;-82
2023/07/30 04:49:47;;;;;;;8.18;2.92;;;16.40;99.90;;;;;;5014476;28;20220;-83
2023/07/30 04:52:13;;;;;;;7.82;3.30;;;16.50;99.90;;;;;;5009575;28;20227;-82
2023/07/30 04:54:40;;;;;;;7.38;3.55;;;16.50;99.90;;;;;;5013608;28;20208;-82
2023/07/30 04:57:07;;;;;;;5.28;3.40;;;16.60;99.90;;;;;;5006466;28;20234;-82
2023/07/30 04:59:34;;;;;;;7.85;3.88;;;16.70;99.90;;;;;;5016915;28;20210;-83
2023/07/30 05:02:01;;;;;;;9.32;3.92;;;16.70;99.90;;;;;;5008596;28;20279;-83
2023/07/30 05:04:29;;;;;;;8.73;3.83;;;16.90;99.90;;;;;;5006106;28;20205;-82
2023/07/30 05:06:56;;;;;;;8.20;4.15;;;16.80;99.90;;;;;;5001298;28;20236;-83
2023/07/30 05:09:23;;;;;;;5.28;4.43;;;16.80;99.90;;;;;;5008339;28;20204;-82
2023/07/30 05:11:50;;;;;;;10.35;5.28;;;16.90;99.90;;;;;;5008878;28;20220;-82
2023/07/30 05:14:17;;;;;;;11.02;5.47;;;17.00;99.90;;;;;;5009029;28;20287;-81
2023/07/30 05:16:43;;;;;;;8.10;5.25;;;17.10;99.90;;;;;;5012732;28;20223;-81
2023/07/30 05:19:10;;;;;;;7.80;5.45;;;17.00;99.90;;;;;;5009474;28;20204;-80
2023/07/30 05:21:38;;;;;;;7.20;4.60;;;17.10;99.90;;;;;;5010371;28;20239;-81
2023/07/30 05:24:05;;;;;;;7.30;4.70;;;17.10;99.90;;;;;;5013126;28;20208;-81
2023/07/30 05:26:32;;;;;;;9.90;5.35;;;17.10;99.90;;;;;;5012327;28;20232;-81
2023/07/30 05:28:59;;;;;;;10.15;5.32;;;17.10;99.90;;;;;;5013766;28;20215;-81
2023/07/30 05:31:26;;;;;;;10.45;5.47;;;17.00;99.90;;;;;;5017659;28;20212;-82
2023/07/30 05:33:53;;;;;;;10.50;6.30;;;17.10;99.90;;;;;;5007015;28;20233;-81
2023/07/30 05:36:19;;;;;;;9.00;6.15;;;17.20;99.90;;;;;;5009511;28;20220;-79
2023/07/30 05:38:48;;;;;;;11.52;6.25;;;17.10;99.90;;;;;;5013331;28;20197;-77
2023/07/30 05:41:14;;;;;;;12.75;6.53;;;17.20;99.90;;;;;;5009520;28;20204;-78
2023/07/30 05:43:41;;;;;;;11.40;6.85;;;17.40;99.90;;;;;;5016963;28;20231;-79
2023/07/30 05:46:09;;;;;;;11.65;6.88;;;17.40;99.90;;;;;;5015099;28;20259;-80
2023/07/30 05:48:36;;;;;;;12.23;7.00;;;17.50;99.90;;;;;;5010548;28;20215;-81
2023/07/30 05:51:02;;;;;;;13.63;8.27;;;17.60;99.90;;;;;;5013619;28;20228;-81
2023/07/30 05:53:29;;;;;;;11.18;6.72;;;17.70;99.90;;;;;;5012866;28;20726;-82
2023/07/30 05:55:57;;;;;;;13.00;6.40;;;17.70;99.90;;;;;;5009088;28;20749;-81
2023/07/30 05:58:24;;;;;;;11.43;6.43;;;17.80;99.90;;;;;;5015612;28;20204;-80
2023/07/30 06:00:51;;;;;;;11.65;6.03;;;17.80;99.90;;;;;;5010271;28;20201;-81
2023/07/30 06:03:18;;;;;;;11.82;5.90;;;17.80;99.90;;;;;;5014974;28;20208;-80
2023/07/30 06:05:45;;;;;;;11.25;5.60;;;17.90;99.90;;;;;;5011505;28;20215;-80
2023/07/30 06:08:12;;;;;;;8.93;5.20;;;17.90;99.90;;;;;;5008692;28;20451;-81
2023/07/30 06:10:40;;;;;;;10.27;4.78;;;18.10;99.90;;;;;;5001145;28;20247;-79
2023/07/30 06:13:08;;;;;;;8.02;4.90;;;18.30;99.90;;;;;;5004595;28;20208;-79
2023/07/30 06:15:35;;;;;;;7.35;4.43;;;18.20;99.90;;;;;;5005278;28;20241;-80
2023/07/30 06:18:02;;;;;;;11.07;3.90;;;18.50;99.90;;;;;;5003523;28;20204;-77
2023/07/30 06:20:30;;;;;;;12.40;5.60;;;18.20;99.90;;;;;;5007398;28;20255;-79
2023/07/30 06:22:56;;;;;;;8.85;4.78;;;18.20;99.90;;;;;;5008442;28;20587;-78
2023/07/30 06:25:23;;;;;;;6.38;3.40;;;18.20;99.90;;;;;;5009247;28;20212;-83
2023/07/30 06:27:51;;;;;;;8.45;3.78;;;18.20;99.90;;;;;;5003704;28;20224;-82
2023/07/30 06:30:19;;;;;;;7.68;3.70;;;18.20;99.90;;;;;;4996660;28;20272;-82
2023/07/30 06:32:46;;;;;;;6.50;3.58;;;18.20;99.90;;;;;;4997274;28;20211;-80
2023/07/30 06:35:12;;;;;;;7.80;3.22;;;18.30;99.90;;;;;;5010708;28;20212;-82
2023/07/30 06:37:40;;;;;;;7.25;2.83;;;18.20;99.90;;;;;;5009442;28;20820;-84
2023/07/30 06:40:08;;;;;;;7.43;2.75;;;18.30;99.90;;;;;;5006020;28;20208;-84
2023/07/30 06:42:35;;;;;;;3.65;2.40;;;18.30;99.90;;;;;;5008904;28;20212;-83
2023/07/30 06:45:02;;;;;;;6.95;2.60;;;18.30;99.90;;;;;;5010161;28;20640;-81
2023/07/30 06:47:30;;;;;;;7.68;2.33;;;18.20;99.90;;;;;;5006159;28;20291;-83
2023/07/30 06:49:57;;;;;;;4.10;2.33;;;18.20;99.90;;;;;;5003427;28;20222;-83
2023/07/30 06:52:24;;;;;;;5.18;2.28;;;18.30;99.90;;;;;;5004969;28;20220;-81
2023/07/30 06:54:50;;;;;;;4.07;2.25;;;18.60;99.90;;;;;;5007226;28;20315;-81
2023/07/30 06:57:17;;;;;;;4.95;2.42;;;18.50;99.90;;;;;;4998626;28;20228;-83
2023/07/30 06:59:44;;;;;;;4.75;2.35;;;18.50;99.90;;;;;;5007717;28;20217;-83
2023/07/30 07:02:11;;;;;;;5.78;2.60;;;18.50;99.90;;;;;;5008595;28;20243;-79
2023/07/30 07:04:39;;;;;;;4.93;2.42;;;18.50;99.90;;;;;;5004262;28;20207;-81
2023/07/30 07:07:06;;;;;;;4.65;2.17;;;18.60;99.90;;;;;;5005798;28;20231;-81
2023/07/30 07:09:33;;;;;;;9.23;3.15;;;18.50;99.90;;;;;;5003943;28;20204;-81
2023/07/30 07:12:00;;;;;;;3.97;2.15;;;18.80;99.90;;;;;;4997254;28;20611;-81
2023/07/30 07:14:26;;;;;;;3.85;2.30;;;18.80;99.90;;;;;;5000993;28;20208;-82
2023/07/30 07:16:54;;;;;;;5.18;2.20;;;18.80;99.90;;;;;;4996513;28;20216;-84
2023/07/30 07:19:21;;;;;;;4.00;2.13;;;18.80;99.90;;;;;;5005885;28;20243;-82
2023/07/30 07:21:50;;;;;;;5.97;2.70;;;18.90;99.90;;;;;;5009758;28;20204;-81
2023/07/30 07:24:17;;;;;;;6.03;2.22;;;19.10;99.90;;;;;;5009333;28;20295;-81
2023/07/30 07:26:44;;;;;;;6.07;2.40;;;19.10;99.90;;;;;;5008666;28;20282;-82
2023/07/30 07:29:11;;;;;;;5.50;2.80;;;19.30;99.90;;;;;;5001963;28;20212;-79
2023/07/30 07:31:38;;;;;;;8.57;2.72;;;19.20;99.90;;;;;;5008326;28;20224;-80
2023/07/30 07:34:05;;;;;;;5.03;2.80;;;19.20;99.90;;;;;;5002431;28;20235;-81
2023/07/30 07:36:32;;;;;;;5.10;2.50;;;19.30;99.90;;;;;;5016478;28;20903;-79
2023/07/30 07:39:00;;;;;;;5.63;2.45;;;19.10;99.90;;;;;;5012565;28;20204;-82
2023/07/30 07:41:27;;;;;;;4.25;2.28;;;19.30;99.90;;;;;;5016297;28;20240;-82
2023/07/30 07:43:54;;;;;;;5.85;3.33;;;19.20;99.90;;;;;;5018363;28;20267;-82
2023/07/30 07:46:21;;;;;;;4.57;2.47;;;19.40;99.90;;;;;;5009898;28;20311;-80
2023/07/30 07:48:48;;;;;;;3.35;2.85;;;19.50;99.90;;;;;;5014782;28;20205;-82
2023/07/30 07:51:14;;;;;;;3.30;2.53;;;19.50;99.90;;;;;;5009666;28;20320;-78
2023/07/30 07:53:41;;;;;;;4.35;2.83;;;19.50;99.90;;;;;;5008572;28;20200;-80
2023/07/30 07:56:09;;;;;;;3.75;2.50;;;19.50;99.90;;;;;;5010574;28;20280;-81
2023/07/30 07:58:36;;;;;;;4.90;2.80;;;19.40;99.90;;;;;;5013642;28;20747;-80
2023/07/30 08:01:04;;;;;;;5.68;3.00;;;19.50;99.90;;;;;;5011426;28;20603;-81
2023/07/30 08:03:30;;;;;;;4.57;2.50;;;19.50;99.90;;;;;;5012548;28;20205;-81
2023/07/30 08:05:57;;;;;;;4.38;2.50;;;19.60;99.90;;;;;;5017824;28;20249;-80
2023/07/30 08:08:26;;;;;;;3.20;2.70;;;19.70;99.90;;;;;;5013418;28;20216;-81
2023/07/30 08:10:52;;;;;;;4.80;2.35;;;19.90;99.90;;;;;;5013011;28;20233;-80
2023/07/30 08:13:21;;;;;;;4.90;2.60;;;19.90;99.90;;;;;;5004800;28;20224;-79
2023/07/30 08:15:48;;;;;;;6.18;2.78;;;19.80;99.90;;;;;;5016829;28;20558;-81
2023/07/30 08:18:15;;;;;;;3.15;2.58;;;19.70;99.90;;;;;;5008465;28;20201;-81
2023/07/30 08:20:42;;;;;;;3.38;2.40;;;19.70;99.90;;;;;;5014586;28;20208;-81
2023/07/30 08:23:09;;;;;;;4.22;2.67;;;19.70;99.90;;;;;;5017196;28;20209;-82
2023/07/30 08:25:36;;;;;;;6.15;4.05;;;19.70;99.90;;;;;;5018796;28;20641;-81
2023/07/30 08:28:04;;;;;;;3.28;2.60;;;20.00;99.90;;;;;;5014939;28;20205;-80
2023/07/30 08:30:32;;;;;;;7.18;2.85;;;20.10;99.90;;;;;;5014476;28;20242;-80
2023/07/30 08:32:59;;;;;;;2.55;2.30;;;20.10;99.90;;;;;;5020639;28;20228;-80
2023/07/30 08:35:27;;;;;;;5.43;2.40;;;20.40;99.90;;;;;;5011324;28;20232;-78
2023/07/30 08:37:55;;;;;;;5.88;2.65;;;20.60;99.90;;;;;;5015110;28;20229;-79
2023/07/30 08:40:23;;;;;;;4.78;2.40;;;21.00;99.90;;;;;;5012147;28;20573;-81
2023/07/30 08:42:50;;;;;;;5.78;2.20;;;21.20;99.90;;;;;;5017010;28;20207;-81
2023/07/30 08:45:17;;;;;;;4.57;2.90;;;20.80;99.90;;;;;;5014110;28;20212;-80
2023/07/30 08:47:47;;;;;;;3.90;2.40;;;20.80;99.90;;;;;;5012001;28;20228;-80
2023/07/30 08:50:14;;;;;;;4.38;2.53;;;20.80;99.90;;;;;;5012109;28;20204;-81
2023/07/30 08:52:41;;;;;;;5.97;2.60;;;20.80;99.90;;;;;;5017943;28;20229;-79
2023/07/30 08:55:09;;;;;;;5.43;2.47;;;20.90;99.90;;;;;;5018577;28;20226;-81
2023/07/30 08:57:37;;;;;;;4.63;2.30;;;21.00;99.90;;;;;;5014163;28;20311;-81
2023/07/30 09:00:08;;;;;;;6.32;2.70;;;21.00;99.90;;;;;;5013682;28;20220;-81
2023/07/30 09:02:38;;;;;;;5.47;2.60;;;20.70;99.90;;;;;;5020397;28;20208;-82
2023/07/30 09:05:07;;;;;;;3.78;2.67;;;20.90;99.90;;;;;;5015157;28;20212;-81
2023/07/30 09:07:34;;;;;;;4.32;2.50;;;21.20;99.90;;;;;;5019464;28;20228;-79
2023/07/30 09:10:01;;;;;;;4.68;3.00;;;21.70;99.90;;;;;;5009788;28;20204;-81
2023/07/30 09:12:30;;;;;;;4.35;2.63;;;21.50;99.90;;;;;;5012966;28;20232;-80
2023/07/30 09:14:57;;;;;;;4.47;2.78;;;21.30;99.90;;;;;;5010017;28;20608;-82
2023/07/30 09:17:24;;;;;;;4.47;2.28;;;22.00;99.90;;;;;;5016724;28;20315;-82
2023/07/30 09:19:52;;;;;;;6.03;2.50;;;22.10;99.90;;;;;;5017452;28;20239;-81
2023/07/30 09:22:27;;;;;;;4.10;2.55;;;21.90;99.90;;;;;;5017926;28;20211;-82
2023/07/30 09:24:54;;;;;;;3.00;2.38;;;21.90;99.90;;;;;;5011987;28;20610;-79
2023/07/30 09:27:24;;;;;;;5.90;2.63;;;21.80;99.90;;;;;;5011594;28;20847;-80
2023/07/30 09:29:53;;;;;;;6.70;2.67;;;21.90;99.90;;;;;;5013023;28;20224;-79
2023/07/30 09:32:20;;;;;;;7.22;3.53;;;21.40;99.90;;;;;;5016008;28;20224;-80
2023/07/30 09:34:47;;;;;;;5.43;2.78;;;21.40;99.90;;;;;;5009335;28;20196;-79
2023/07/30 09:37:15;;;;;;;4.97;2.40;;;21.50;99.90;;;;;;5012908;28;20310;-79
2023/07/30 09:39:44;;;;;;;3.38;2.20;;;21.50;99.90;;;;;;5017613;28;20212;-82
2023/07/30 09:42:11;;;;;;;5.38;2.13;;;21.30;99.90;;;;;;5014572;28;20291;-80
2023/07/30 09:44:39;;;;;;;3.65;2.20;;;21.40;99.90;;;;;;5015888;28;20205;-81
2023/07/30 09:47:09;;;;;;;4.97;2.28;;;21.50;99.90;;;;;;5015991;28;20302;-83
2023/07/30 09:49:36;;;;;;;4.70;2.45;;;21.50;99.90;;;;;;5017893;28;20208;-79
2023/07/30 09:52:05;;;;;;;6.53;2.60;;;21.20;99.90;;;;;;5017402;28;20224;-81
2023/07/30 09:54:32;;;;;;;4.90;2.47;;;21.50;99.90;;;;;;5014580;28;20212;-86
2023/07/30 09:57:01;;;;;;;8.85;2.83;;;21.60;99.90;;;;;;5011820;28;20228;-80
2023/07/30 09:59:27;;;;;;;5.00;2.60;;;21.40;99.90;;;;;;5010744;28;20203;-79
2023/07/30 10:01:55;;;;;;;4.53;2.28;;;21.40;99.90;;;;;;5017864;28;20596;-82
2023/07/30 10:04:23;;;;;;;5.63;2.28;;;21.40;99.90;;;;;;5009904;28;20243;-81
2023/07/30 10:06:56;;;;;;;3.60;2.35;;;21.40;99.90;;;;;;5012986;28;20231;-81
2023/07/30 10:09:25;;;;;;;6.07;2.30;;;21.20;99.90;;;;;;5013301;28;20606;-81
2023/07/30 10:11:54;;;;;;;5.53;2.47;;;21.10;99.90;;;;;;5019318;28;20757;-82
2023/07/30 10:14:24;;;;;;;4.20;2.00;;;20.90;99.90;;;;;;5020206;28;20215;-80
2023/07/30 10:16:53;;;;;;;5.90;2.45;;;20.80;99.90;;;;;;5012730;28;20252;-82
2023/07/30 10:19:24;;;;;;;5.72;2.40;;;20.80;99.90;;;;;;5013131;28;20229;-84
2023/07/30 10:21:50;;;;;;;8.10;2.78;;;20.70;99.90;;;;;;5018417;28;20220;-81
2023/07/30 10:24:17;;;;;;;5.82;3.95;;;20.50;99.90;;;;;;5009313;28;20235;-81
2023/07/30 10:26:44;;;;;;;7.78;3.20;;;20.50;99.90;;;;;;5013068;28;20228;-79
2023/07/30 10:29:15;;;;;;;8.00;3.80;;;20.30;99.90;;;;;;5016689;28;20203;-81
2023/07/30 10:31:48;;;;;;;7.43;4.43;;;20.30;99.90;;;;;;5007720;28;20220;-83
2023/07/30 10:34:15;;;;;;;11.73;4.40;;;20.50;99.90;;;;;;5013469;28;20205;-81
2023/07/30 10:36:44;;;;;;;7.97;3.97;;;20.50;99.90;;;;;;5011036;28;20594;-82
2023/07/30 10:39:13;;;;;;;7.55;4.55;;;20.60;99.90;;;;;;5013240;28;20629;-82
2023/07/30 10:41:40;;;;;;;11.00;4.43;;;20.40;99.90;;;;;;5015280;28;20204;-82
2023/07/30 10:44:07;;;;;;;11.77;3.75;;;20.30;99.90;;;;;;5015755;28;20215;-80
2023/07/30 10:46:34;;;;;;;10.52;4.20;;;20.30;99.90;;;;;;5006502;28;20231;-81
2023/07/30 10:49:06;;;;;;;9.40;4.43;;;20.10;99.90;;;;;;5018013;28;20277;-81
2023/07/30 10:51:33;;;;;;;6.85;4.28;;;19.90;99.90;;;;;;5017840;28;20940;-80
2023/07/30 10:54:00;;;;;;;7.35;4.95;;;20.00;99.90;;;;;;5019296;28;20210;-82
2023/07/30 10:56:27;;;;;;;7.22;5.07;;;19.90;99.90;;;;;;5017918;28;20714;-80
2023/07/30 10:58:55;;;;;;;7.63;4.60;;;19.90;99.90;;;;;;5017127;28;20200;-81
2023/07/30 11:01:25;;;;;;;12.35;4.97;;;19.90;99.90;;;;;;5014856;28;20212;-80
2023/07/30 11:03:53;;;;;;;9.68;5.40;;;20.00;99.90;;;;;;5006386;28;20235;-80
2023/07/30 11:06:25;;;;;;;10.00;5.00;;;20.00;99.90;;;;;;5003833;28;20690;-83
2023/07/30 11:08:52;;;;;;;6.13;4.35;;;20.30;99.90;;;;;;5009078;28;20203;-81
2023/07/30 11:11:19;;;;;;;10.80;4.40;;;20.40;99.90;;;;;;5010248;28;20201;-81
2023/07/30 11:13:47;;;;;;;12.13;3.90;;;20.40;99.90;;;;;;5010490;28;20247;-79
2023/07/30 11:16:15;;;;;;;7.22;3.70;;;20.60;99.90;;;;;;5002174;28;20280;-81
2023/07/30 11:18:43;;;;;;;7.30;3.60;;;20.50;99.90;;;;;;5009163;28;20224;-81
2023/07/30 11:21:12;;;;;;;4.82;3.58;;;20.50;99.90;;;;;;5007706;28;20200;-80
2023/07/30 11:23:41;;;;;;;6.80;3.40;;;20.60;99.90;;;;;;5006760;28;20200;-79
2023/07/30 11:26:10;;;;;;;9.52;3.97;;;20.60;99.90;;;;;;5004875;28;20231;-81
2023/07/30 11:28:38;;;;;;;8.50;3.47;;;20.70;99.90;;;;;;5008633;28;20211;-82
2023/07/30 11:31:06;;;;;;;9.23;4.90;;;20.50;99.90;;;;;;5016512;28;20200;-81
2023/07/30 11:33:36;;;;;;;10.90;4.22;;;20.70;99.90;;;;;;5017773;28;20712;-83
2023/07/30 11:36:03;;;;;;;5.20;3.60;;;20.60;99.90;;;;;;5020216;28;20228;-79
2023/07/30 11:38:32;;;;;;;7.90;4.32;;;20.70;99.90;;;;;;5018426;28;20221;-81
2023/07/30 11:41:01;;;;;;;10.85;4.32;;;20.70;99.90;;;;;;5014737;28;20306;-82
2023/07/30 11:43:28;;;;;;;5.97;3.85;;;20.60;99.90;;;;;;5013100;28;20583;-81
2023/07/30 11:46:13;;;;;;;7.72;4.25;;;20.80;99.90;;;;;;5011927;28;20213;-81
2023/07/30 11:48:41;;;;;;;7.03;3.95;;;20.70;99.90;;;;;;5014231;28;20239;-81
2023/07/30 11:51:08;;;;;;;6.88;3.90;;;20.80;99.90;;;;;;5009658;28;20212;-81
2023/07/30 11:53:49;;;;;;;5.43;3.90;;;21.00;99.90;;;;;;5016661;28;20228;-82
2023/07/30 11:56:23;;;;;;;7.13;3.75;;;21.50;99.90;;;;;;5010529;28;20252;-82
2023/07/30 11:58:50;;;;;;;5.78;3.72;;;21.60;99.90;;;;;;5012570;28;20208;-80
2023/07/30 12:01:17;;;;;;;9.77;4.80;;;21.50;99.90;;;;;;5010882;28;20193;-82
2023/07/30 12:03:44;;;;;;;10.43;4.50;;;21.50;99.90;;;;;;5015027;28;20204;-82
2023/07/30 12:06:12;;;;;;;11.80;4.68;;;21.40;99.90;;;;;;5016564;28;20851;-83
2023/07/30 12:08:39;;;;;;;10.88;4.07;;;21.50;99.90;;;;;;5018359;28;20950;-81
2023/07/30 12:11:08;;;;;;;6.03;3.58;;;21.20;99.90;;;;;;5014833;28;20200;-81
2023/07/30 12:13:45;;;;;;;11.00;4.07;;;21.20;99.90;;;;;;5019228;28;20224;-82
2023/07/30 12:16:12;;;;;;;5.15;3.08;;;21.40;99.90;;;;;;5016345;28;20254;-82
2023/07/30 12:18:40;;;;;;;5.32;3.53;;;21.40;99.90;;;;;;5018785;28;20220;-80
2023/07/30 12:21:08;;;;;;;7.85;4.00;;;21.50;99.90;;;;;;5018781;28;20228;-82
2023/07/30 12:23:35;;;;;;;7.07;3.88;;;21.50;99.90;;;;;;5018402;28;20283;-80
2023/07/30 12:26:05;;;;;;;6.25;4.03;;;21.70;99.90;;;;;;5011120;28;20230;-81
2023/07/30 12:28:32;;;;;;;9.77;4.50;;;21.60;99.90;;;;;;5019772;28;20208;-82
2023/07/30 12:31:01;;;;;;;7.10;4.60;;;21.50;99.90;;;;;;5016695;28;20586;-81
2023/07/30 12:33:27;;;;;;;7.32;4.07;;;21.10;99.90;;;;;;5013891;28;20621;-82
2023/07/30 12:35:54;;;;;;;8.35;4.93;;;21.40;99.90;;;;;;5018618;28;20240;-82
2023/07/30 12:38:21;;;;;;;10.73;4.95;;;21.50;99.90;;;;;;5010889;28;20204;-81
2023/07/30 12:40:48;;;;;;;8.18;5.07;;;21.40;99.90;;;;;;5012688;28;20204;-82
2023/07/30 12:43:15;;;;;;;6.53;4.60;;;21.90;99.90;;;;;;5016355;28;20680;-80
2023/07/30 12:45:42;;;;;;;6.85;4.63;;;22.00;99.90;;;;;;5014596;28;20196;-79